Illinois — WYQ3689 — position and weather

sailwx.info

Track history (hours):
 
Tides and Currents Weather Stations Pressure Air Temp Water Temp Dewpoint Dewpoint Depression Visibility Wind Speed Wind Dir Waves Ship Positions

Illinois

Owner: Great Lakes Dredge & Dock Company, OAK BROOK, IL. More information available from US FCC via Universal Licensing System and Coast Guard Vessel Documentation Center.

Last reported at 2014-Dec-29 20:24 UTC. Time now 2015-Jan-30 11:02 UTC.
Position N 37°55' W 076°11'.
Warning: this ship's position is 31 days out of date.

Length 69 m.

Type: Other ship. MMSI: 366796250.

Date/timePositionNaut miles runAvg speedWind from/ knotsBaromVisibWave heightAir tempDewpointWater temp
2014-Dec-29 20:24N 37°55' W 076°11'4 4.0
2014-Dec-29 19:28N 37°58' W 076°13'4 3.9
2014-Dec-29 18:28N 38°02' W 076°14'6 4.0
2014-Dec-29 17:05N 38°07' W 076°15'41 3.9
2014-Dec-29 06:32N 38°48' W 076°27'4 4.1
2014-Dec-29 05:33N 38°52' W 076°26'4 4.1
2014-Dec-29 04:34N 38°56' W 076°24'4 4.0
2014-Dec-29 03:32N 38°60' W 076°23'4 3.8
2014-Dec-29 02:34N 39°03' W 076°21'4 4.0
2014-Dec-29 01:34N 39°07' W 076°20'5 4.7
2014-Dec-29 00:33N 39°11' W 076°17'8 6.0
2014-Dec-28 23:11N 39°19' W 076°13'34 2.2
2014-Dec-28 07:27N 39°34' W 075°34'  
Track history (hours):
 
Tides and Currents Weather Stations Pressure Air Temp Water Temp Dewpoint Dewpoint Depression Visibility Wind Speed Wind Dir Waves Ship Positions

Illinois

Owner: Great Lakes Dredge & Dock Company, OAK BROOK, IL. More information available from US FCC via Universal Licensing System and Coast Guard Vessel Documentation Center.

Last reported at 2014-Dec-29 20:24 UTC. Time now 2015-Jan-30 11:02 UTC.
Position N 37°55' W 076°11'.
Warning: this ship's position is 31 days out of date.

Length 69 m.

Type: Other ship. MMSI: 366796250.

Date/timePositionNaut miles runAvg speedWind from/ knotsBaromVisibWave heightAir tempDewpointWater temp
2014-Dec-29 20:24N 37°55' W 076°11'4 4.0
2014-Dec-29 19:28N 37°58' W 076°13'4 3.9
2014-Dec-29 18:28N 38°02' W 076°14'6 4.0
2014-Dec-29 17:05N 38°07' W 076°15'41 3.9
2014-Dec-29 06:32N 38°48' W 076°27'4 4.1
2014-Dec-29 05:33N 38°52' W 076°26'4 4.1
2014-Dec-29 04:34N 38°56' W 076°24'4 4.0
2014-Dec-29 03:32N 38°60' W 076°23'4 3.8
2014-Dec-29 02:34N 39°03' W 076°21'4 4.0
2014-Dec-29 01:34N 39°07' W 076°20'5 4.7
2014-Dec-29 00:33N 39°11' W 076°17'8 6.0
2014-Dec-28 23:11N 39°19' W 076°13'34 2.2
2014-Dec-28 07:27N 39°34' W 075°34'  

Dump ship's entire track history